PWSweather.com
Personal Weather Stations
Station Observations
WD4JKH
Forsyth, GA 31029

Forsyth, GA 31029

Lat: 33.033225, Lon: -83.927995

Elevation: 709

Station Type: Davis Vantage VUE

High Low Average
Temperature 45.8°F7.7°C 25.0°F-3.9°C 34.6°F1.4°C
Dew Point 27.3°F-2.6°C 21.8°F-5.7°C 23.8°F-4.6°C
Winds 7.9 mph 12.7 kmh Calm Calm 3.0 mph E4.8 kmh E
Wind Gusts 16.0 mph25.7 kmh 3.0 mph4.8 kmh 8.0 mph12.9 kmh
Humidity 90% 41% 67%
Pressure 30.42 in1030.1 mb 30.26 in1024.7 mb -
Precipitation 0.00 in0.0 mm - -
Hour Temp Dew Point Humidity Winds Wind Gusts Pressure Precip Precip Rate Daily Precip Total
12:02 AM 28.0°F-2.2°C 22.3°F-5.4°C 79% 1.8 mph NNW2.9 kmh NNW 8.0 mph12.9 kmh 30.26 in1024.7 mb 0.00 in0.0 mm 0.00 in0.0 mm 0.00 in0.0 mm
12:07 AM 28.0°F-2.2°C 22.3°F-5.4°C 79% 2.2 mph NNE3.5 kmh NNE 8.0 mph12.9 kmh 30.26 in1024.7 mb 0.00 in0.0 mm 0.00 in0.0 mm 0.00 in0.0 mm
12:12 AM 27.9°F-2.3°C 22.5°F-5.3°C 80% 1.7 mph NNW2.7 kmh NNW 5.0 mph8.0 kmh 30.26 in1024.7 mb 0.00 in0.0 mm 0.00 in0.0 mm 0.00 in0.0 mm
12:17 AM 27.8°F-2.3°C 22.4°F-5.3°C 80% 2.2 mph N3.5 kmh N 7.0 mph11.3 kmh 30.26 in1024.7 mb 0.00 in0.0 mm 0.00 in0.0 mm 0.00 in0.0 mm
12:22 AM 27.8°F-2.3°C 22.4°F-5.3°C 80% 2.3 mph N3.7 kmh N 7.0 mph11.3 kmh 30.27 in1025.1 mb 0.00 in0.0 mm 0.00 in0.0 mm 0.00 in0.0 mm
12:27 AM 27.7°F-2.4°C 22.3°F-5.4°C 80% 1.3 mph NNW2.1 kmh NNW 7.0 mph11.3 kmh 30.27 in1025.1 mb 0.00 in0.0 mm 0.00 in0.0 mm 0.00 in0.0 mm
12:32 AM 27.7°F-2.4°C 22.3°F-5.4°C 80% 3.1 mph NNW5.0 kmh NNW 7.0 mph11.3 kmh 30.27 in1025.1 mb 0.00 in0.0 mm 0.00 in0.0 mm 0.00 in0.0 mm
12:37 AM 27.6°F-2.4°C 22.2°F-5.4°C 80% 1.3 mph N2.1 kmh N 7.0 mph11.3 kmh 30.27 in1025.1 mb 0.00 in0.0 mm 0.00 in0.0 mm 0.00 in0.0 mm
12:42 AM 27.6°F-2.4°C 22.5°F-5.3°C 81% 2.0 mph N3.2 kmh N 7.0 mph11.3 kmh 30.27 in1025.1 mb 0.00 in0.0 mm 0.00 in0.0 mm 0.00 in0.0 mm
12:47 AM 27.5°F-2.5°C 22.4°F-5.3°C 81% Calm Calm 7.0 mph11.3 kmh 30.28 in1025.4 mb 0.00 in0.0 mm 0.00 in0.0 mm 0.00 in0.0 mm
12:52 AM 27.4°F-2.6°C 22.3°F-5.4°C 81% 3.3 mph NNW5.3 kmh NNW 8.0 mph12.9 kmh 30.27 in1025.1 mb 0.00 in0.0 mm 0.00 in0.0 mm 0.00 in0.0 mm
12:57 AM 27.4°F-2.6°C 22.3°F-5.4°C 81% 1.2 mph N1.9 kmh N 8.0 mph12.9 kmh 30.28 in1025.4 mb 0.00 in0.0 mm 0.00 in0.0 mm 0.00 in0.0 mm
01:02 AM 27.4°F-2.6°C 22.3°F-5.4°C 81% 3.2 mph N5.1 kmh N 9.0 mph14.5 kmh 30.28 in1025.4 mb 0.00 in0.0 mm 0.00 in0.0 mm 0.00 in0.0 mm
01:07 AM 27.4°F-2.6°C 22.3°F-5.4°C 81% 1.2 mph N1.9 kmh N 9.0 mph14.5 kmh 30.28 in1025.4 mb 0.00 in0.0 mm 0.00 in0.0 mm 0.00 in0.0 mm
01:12 AM 27.3°F-2.6°C 22.2°F-5.4°C 81% 1.8 mph N2.9 kmh N 9.0 mph14.5 kmh 30.29 in1025.7 mb 0.00 in0.0 mm 0.00 in0.0 mm 0.00 in0.0 mm
01:17 AM 27.3°F-2.6°C 22.2°F-5.4°C 81% 2.0 mph N3.2 kmh N 9.0 mph14.5 kmh 30.29 in1025.7 mb 0.00 in0.0 mm 0.00 in0.0 mm 0.00 in0.0 mm
01:22 AM 27.2°F-2.7°C 22.1°F-5.5°C 81% 1.0 mph NNE1.6 kmh NNE 8.0 mph12.9 kmh 30.29 in1025.7 mb 0.00 in0.0 mm 0.00 in0.0 mm 0.00 in0.0 mm
01:27 AM 27.1°F-2.7°C 22.0°F-5.6°C 81% 1.6 mph N2.6 kmh N 5.0 mph8.0 kmh 30.29 in1025.7 mb 0.00 in0.0 mm 0.00 in0.0 mm 0.00 in0.0 mm
01:32 AM 27.1°F-2.7°C 22.3°F-5.4°C 82% 1.4 mph NNE2.3 kmh NNE 5.0 mph8.0 kmh 30.29 in1025.7 mb 0.00 in0.0 mm 0.00 in0.0 mm 0.00 in0.0 mm
01:37 AM 27.0°F-2.8°C 22.2°F-5.4°C 82% 2.0 mph NNE3.2 kmh NNE 5.0 mph8.0 kmh 30.29 in1025.7 mb 0.00 in0.0 mm 0.00 in0.0 mm 0.00 in0.0 mm
01:42 AM 27.0°F-2.8°C 22.2°F-5.4°C 82% 2.0 mph NNW3.2 kmh NNW 6.0 mph9.7 kmh 30.29 in1025.7 mb 0.00 in0.0 mm 0.00 in0.0 mm 0.00 in0.0 mm
01:47 AM 26.9°F-2.8°C 22.1°F-5.5°C 82% 1.3 mph NNE2.1 kmh NNE 6.0 mph9.7 kmh 30.29 in1025.7 mb 0.00 in0.0 mm 0.00 in0.0 mm 0.00 in0.0 mm
01:52 AM 26.9°F-2.8°C 22.1°F-5.5°C 82% 1.5 mph N2.4 kmh N 6.0 mph9.7 kmh 30.29 in1025.7 mb 0.00 in0.0 mm 0.00 in0.0 mm 0.00 in0.0 mm
01:57 AM 26.8°F-2.9°C 22.0°F-5.6°C 82% 1.9 mph N3.1 kmh N 6.0 mph9.7 kmh 30.29 in1025.7 mb 0.00 in0.0 mm 0.00 in0.0 mm 0.00 in0.0 mm
02:02 AM 26.8°F-2.9°C 22.0°F-5.6°C 82% 1.5 mph NNE2.4 kmh NNE 6.0 mph9.7 kmh 30.30 in1026.1 mb 0.00 in0.0 mm 0.00 in0.0 mm 0.00 in0.0 mm
02:06 AM 26.7°F-2.9°C 21.9°F-5.6°C 82% 1.6 mph NW2.6 kmh NW 6.0 mph9.7 kmh 30.30 in1026.1 mb 0.00 in0.0 mm 0.00 in0.0 mm 0.00 in0.0 mm
02:11 AM 26.6°F-3.0°C 22.1°F-5.5°C 83% 1.5 mph NNE2.4 kmh NNE 6.0 mph9.7 kmh 30.30 in1026.1 mb 0.00 in0.0 mm 0.00 in0.0 mm 0.00 in0.0 mm
02:16 AM 26.6°F-3.0°C 22.1°F-5.5°C 83% 2.9 mph N4.7 kmh N 6.0 mph9.7 kmh 30.30 in1026.1 mb 0.00 in0.0 mm 0.00 in0.0 mm 0.00 in0.0 mm
02:21 AM 26.4°F-3.1°C 21.9°F-5.6°C 83% 1.6 mph N2.6 kmh N 6.0 mph9.7 kmh 30.30 in1026.1 mb 0.00 in0.0 mm 0.00 in0.0 mm 0.00 in0.0 mm
02:26 AM 26.4°F-3.1°C 22.2°F-5.4°C 84% 1.0 mph N1.6 kmh N 6.0 mph9.7 kmh 30.30 in1026.1 mb 0.00 in0.0 mm 0.00 in0.0 mm 0.00 in0.0 mm
02:31 AM 26.3°F-3.2°C 22.1°F-5.5°C 84% 1.2 mph NNE1.9 kmh NNE 6.0 mph9.7 kmh 30.30 in1026.1 mb 0.00 in0.0 mm 0.00 in0.0 mm 0.00 in0.0 mm
02:36 AM 26.2°F-3.2°C 22.0°F-5.6°C 84% 1.4 mph NNE2.3 kmh NNE 4.0 mph6.4 kmh 30.30 in1026.1 mb 0.00 in0.0 mm 0.00 in0.0 mm 0.00 in0.0 mm
02:41 AM 26.2°F-3.2°C 22.0°F-5.6°C 84% 1.5 mph NE2.4 kmh NE 3.0 mph4.8 kmh 30.29 in1025.7 mb 0.00 in0.0 mm 0.00 in0.0 mm 0.00 in0.0 mm
02:46 AM 26.2°F-3.2°C 22.0°F-5.6°C 84% 1.5 mph N2.4 kmh N 3.0 mph4.8 kmh 30.29 in1025.7 mb 0.00 in0.0 mm 0.00 in0.0 mm 0.00 in0.0 mm
02:51 AM 26.1°F-3.3°C 21.9°F-5.6°C 84% 1.6 mph N2.6 kmh N 4.0 mph6.4 kmh 30.29 in1025.7 mb 0.00 in0.0 mm 0.00 in0.0 mm 0.00 in0.0 mm
02:56 AM 26.1°F-3.3°C 21.9°F-5.6°C 84% 1.6 mph NNE2.6 kmh NNE 4.0 mph6.4 kmh 30.29 in1025.7 mb 0.00 in0.0 mm 0.00 in0.0 mm 0.00 in0.0 mm
03:01 AM 26.1°F-3.3°C 21.9°F-5.6°C 84% 1.4 mph NE2.3 kmh NE 4.0 mph6.4 kmh 30.28 in1025.4 mb 0.00 in0.0 mm 0.00 in0.0 mm 0.00 in0.0 mm
03:06 AM 26.0°F-3.3°C 21.8°F-5.7°C 84% 1.1 mph N1.8 kmh N 4.0 mph6.4 kmh 30.28 in1025.4 mb 0.00 in0.0 mm 0.00 in0.0 mm 0.00 in0.0 mm
03:11 AM 25.9°F-3.4°C 22.0°F-5.6°C 85% 1.0 mph N1.6 kmh N 3.0 mph4.8 kmh 30.29 in1025.7 mb 0.00 in0.0 mm 0.00 in0.0 mm 0.00 in0.0 mm
03:16 AM 25.9°F-3.4°C 22.0°F-5.6°C 85% 1.4 mph NE2.3 kmh NE 4.0 mph6.4 kmh 30.29 in1025.7 mb 0.00 in0.0 mm 0.00 in0.0 mm 0.00 in0.0 mm
03:21 AM 25.9°F-3.4°C 22.0°F-5.6°C 85% 1.2 mph N1.9 kmh N 4.0 mph6.4 kmh 30.29 in1025.7 mb 0.00 in0.0 mm 0.00 in0.0 mm 0.00 in0.0 mm
03:26 AM 25.9°F-3.4°C 22.0°F-5.6°C 85% 1.6 mph NNE2.6 kmh NNE 5.0 mph8.0 kmh 30.29 in1025.7 mb 0.00 in0.0 mm 0.00 in0.0 mm 0.00 in0.0 mm
03:31 AM 25.9°F-3.4°C 22.0°F-5.6°C 85% 2.2 mph NNE3.5 kmh NNE 5.0 mph8.0 kmh 30.29 in1025.7 mb 0.00 in0.0 mm 0.00 in0.0 mm 0.00 in0.0 mm
03:36 AM 25.9°F-3.4°C 22.0°F-5.6°C 85% 2.1 mph NNE3.4 kmh NNE 5.0 mph8.0 kmh 30.29 in1025.7 mb 0.00 in0.0 mm 0.00 in0.0 mm 0.00 in0.0 mm
03:41 AM 25.8°F-3.4°C 21.9°F-5.6°C 85% 1.5 mph NNW2.4 kmh NNW 5.0 mph8.0 kmh 30.29 in1025.7 mb 0.00 in0.0 mm 0.00 in0.0 mm 0.00 in0.0 mm
03:46 AM 25.7°F-3.5°C 22.1°F-5.5°C 86% 1.9 mph N3.1 kmh N 5.0 mph8.0 kmh 30.30 in1026.1 mb 0.00 in0.0 mm 0.00 in0.0 mm 0.00 in0.0 mm
03:51 AM 25.7°F-3.5°C 22.1°F-5.5°C 86% 1.2 mph N1.9 kmh N 5.0 mph8.0 kmh 30.30 in1026.1 mb 0.00 in0.0 mm 0.00 in0.0 mm 0.00 in0.0 mm
03:56 AM 25.5°F-3.6°C 21.9°F-5.6°C 86% 1.8 mph NNE2.9 kmh NNE 5.0 mph8.0 kmh 30.30 in1026.1 mb 0.00 in0.0 mm 0.00 in0.0 mm 0.00 in0.0 mm
04:01 AM 25.5°F-3.6°C 21.9°F-5.6°C 86% 1.1 mph N1.8 kmh N 5.0 mph8.0 kmh 30.30 in1026.1 mb 0.00 in0.0 mm 0.00 in0.0 mm 0.00 in0.0 mm
04:06 AM 25.6°F-3.6°C 22.0°F-5.6°C 86% 2.2 mph NE3.5 kmh NE 5.0 mph8.0 kmh 30.30 in1026.1 mb 0.00 in0.0 mm 0.00 in0.0 mm 0.00 in0.0 mm
04:11 AM 25.6°F-3.6°C 22.0°F-5.6°C 86% 1.7 mph NE2.7 kmh NE 5.0 mph8.0 kmh 30.30 in1026.1 mb 0.00 in0.0 mm 0.00 in0.0 mm 0.00 in0.0 mm
04:16 AM 25.7°F-3.5°C 22.1°F-5.5°C 86% 2.5 mph NNE4.0 kmh NNE 7.0 mph11.3 kmh 30.30 in1026.1 mb 0.00 in0.0 mm 0.00 in0.0 mm 0.00 in0.0 mm
04:21 AM 25.7°F-3.5°C 22.1°F-5.5°C 86% 2.1 mph NNE3.4 kmh NNE 7.0 mph11.3 kmh 30.30 in1026.1 mb 0.00 in0.0 mm 0.00 in0.0 mm 0.00 in0.0 mm
04:26 AM 25.7°F-3.5°C 22.1°F-5.5°C 86% 2.0 mph N3.2 kmh N 7.0 mph11.3 kmh 30.30 in1026.1 mb 0.00 in0.0 mm 0.00 in0.0 mm 0.00 in0.0 mm
04:31 AM 25.6°F-3.6°C 22.2°F-5.4°C 87% 1.2 mph NNE1.9 kmh NNE 7.0 mph11.3 kmh 30.31 in1026.4 mb 0.00 in0.0 mm 0.00 in0.0 mm 0.00 in0.0 mm
04:36 AM 25.5°F-3.6°C 22.1°F-5.5°C 87% 1.6 mph NE2.6 kmh NE 6.0 mph9.7 kmh 30.30 in1026.1 mb 0.00 in0.0 mm 0.00 in0.0 mm 0.00 in0.0 mm
04:41 AM 25.5°F-3.6°C 22.1°F-5.5°C 87% 1.6 mph N2.6 kmh N 6.0 mph9.7 kmh 30.31 in1026.4 mb 0.00 in0.0 mm 0.00 in0.0 mm 0.00 in0.0 mm
04:46 AM 25.4°F-3.7°C 22.0°F-5.6°C 87% 1.4 mph NE2.3 kmh NE 6.0 mph9.7 kmh 30.31 in1026.4 mb 0.00 in0.0 mm 0.00 in0.0 mm 0.00 in0.0 mm
04:51 AM 25.4°F-3.7°C 22.1°F-5.5°C 87% 1.7 mph NE2.7 kmh NE 6.0 mph9.7 kmh 30.31 in1026.4 mb 0.00 in0.0 mm 0.00 in0.0 mm 0.00 in0.0 mm
04:56 AM 25.3°F-3.7°C 22.2°F-5.4°C 88% 1.5 mph NNE2.4 kmh NNE 6.0 mph9.7 kmh 30.31 in1026.4 mb 0.00 in0.0 mm 0.00 in0.0 mm 0.00 in0.0 mm
05:01 AM 25.3°F-3.7°C 22.2°F-5.4°C 88% 1.8 mph NNE2.9 kmh NNE 5.0 mph8.0 kmh 30.32 in1026.8 mb 0.00 in0.0 mm 0.00 in0.0 mm 0.00 in0.0 mm
05:06 AM 25.3°F-3.7°C 22.2°F-5.4°C 88% 1.4 mph NNE2.3 kmh NNE 5.0 mph8.0 kmh 30.32 in1026.8 mb 0.00 in0.0 mm 0.00 in0.0 mm 0.00 in0.0 mm
05:11 AM 25.4°F-3.7°C 22.3°F-5.4°C 88% 1.6 mph N2.6 kmh N 6.0 mph9.7 kmh 30.32 in1026.8 mb 0.00 in0.0 mm 0.00 in0.0 mm 0.00 in0.0 mm
05:16 AM 25.3°F-3.7°C 22.2°F-5.4°C 88% 1.8 mph N2.9 kmh N 6.0 mph9.7 kmh 30.32 in1026.8 mb 0.00 in0.0 mm 0.00 in0.0 mm 0.00 in0.0 mm
05:21 AM 25.3°F-3.7°C 22.2°F-5.4°C 88% 1.0 mph NE1.6 kmh NE 6.0 mph9.7 kmh 30.32 in1026.8 mb 0.00 in0.0 mm 0.00 in0.0 mm 0.00 in0.0 mm
05:26 AM 25.4°F-3.7°C 22.3°F-5.4°C 88% 2.1 mph NE3.4 kmh NE 6.0 mph9.7 kmh 30.31 in1026.4 mb 0.00 in0.0 mm 0.00 in0.0 mm 0.00 in0.0 mm
05:31 AM 25.5°F-3.6°C 22.4°F-5.3°C 88% 1.6 mph NNE2.6 kmh NNE 5.0 mph8.0 kmh 30.31 in1026.4 mb 0.00 in0.0 mm 0.00 in0.0 mm 0.00 in0.0 mm
05:36 AM 25.6°F-3.6°C 22.5°F-5.3°C 88% 2.1 mph NE3.4 kmh NE 6.0 mph9.7 kmh 30.32 in1026.8 mb 0.00 in0.0 mm 0.00 in0.0 mm 0.00 in0.0 mm
05:41 AM 25.6°F-3.6°C 22.5°F-5.3°C 88% 1.7 mph NE2.7 kmh NE 6.0 mph9.7 kmh 30.32 in1026.8 mb 0.00 in0.0 mm 0.00 in0.0 mm 0.00 in0.0 mm
05:46 AM 25.6°F-3.6°C 22.5°F-5.3°C 88% 2.4 mph NE3.9 kmh NE 6.0 mph9.7 kmh 30.32 in1026.8 mb 0.00 in0.0 mm 0.00 in0.0 mm 0.00 in0.0 mm
05:51 AM 25.5°F-3.6°C 22.4°F-5.3°C 88% 1.3 mph NE2.1 kmh NE 5.0 mph8.0 kmh 30.33 in1027.1 mb 0.00 in0.0 mm 0.00 in0.0 mm 0.00 in0.0 mm
05:56 AM 25.5°F-3.6°C 22.4°F-5.3°C 88% 1.8 mph NE2.9 kmh NE 5.0 mph8.0 kmh 30.33 in1027.1 mb 0.00 in0.0 mm 0.00 in0.0 mm 0.00 in0.0 mm
06:01 AM 25.5°F-3.6°C 22.4°F-5.3°C 88% 1.9 mph NNE3.1 kmh NNE 5.0 mph8.0 kmh 30.33 in1027.1 mb 0.00 in0.0 mm 0.00 in0.0 mm 0.00 in0.0 mm
06:06 AM 25.5°F-3.6°C 22.4°F-5.3°C 88% 2.0 mph NE3.2 kmh NE 5.0 mph8.0 kmh 30.33 in1027.1 mb 0.00 in0.0 mm 0.00 in0.0 mm 0.00 in0.0 mm
06:11 AM 25.4°F-3.7°C 22.3°F-5.4°C 88% 1.7 mph NE2.7 kmh NE 5.0 mph8.0 kmh 30.34 in1027.4 mb 0.00 in0.0 mm 0.00 in0.0 mm 0.00 in0.0 mm
06:16 AM 25.3°F-3.7°C 22.2°F-5.4°C 88% 1.6 mph NNE2.6 kmh NNE 5.0 mph8.0 kmh 30.33 in1027.1 mb 0.00 in0.0 mm 0.00 in0.0 mm 0.00 in0.0 mm
06:21 AM 25.3°F-3.7°C 22.2°F-5.4°C 88% 2.0 mph NNE3.2 kmh NNE 5.0 mph8.0 kmh 30.33 in1027.1 mb 0.00 in0.0 mm 0.00 in0.0 mm 0.00 in0.0 mm
06:26 AM 25.3°F-3.7°C 22.5°F-5.3°C 89% 2.3 mph NE3.7 kmh NE 5.0 mph8.0 kmh 30.34 in1027.4 mb 0.00 in0.0 mm 0.00 in0.0 mm 0.00 in0.0 mm
06:31 AM 25.3°F-3.7°C 22.5°F-5.3°C 89% 2.0 mph NNE3.2 kmh NNE 5.0 mph8.0 kmh 30.34 in1027.4 mb 0.00 in0.0 mm 0.00 in0.0 mm 0.00 in0.0 mm
06:36 AM 25.2°F-3.8°C 22.4°F-5.3°C 89% 2.7 mph NE4.3 kmh NE 6.0 mph9.7 kmh 30.35 in1027.8 mb 0.00 in0.0 mm 0.00 in0.0 mm 0.00 in0.0 mm
06:41 AM 25.2°F-3.8°C 22.4°F-5.3°C 89% 1.4 mph NNE2.3 kmh NNE 6.0 mph9.7 kmh 30.35 in1027.8 mb 0.00 in0.0 mm 0.00 in0.0 mm 0.00 in0.0 mm
06:46 AM 25.1°F-3.8°C 22.3°F-5.4°C 89% 2.4 mph NE3.9 kmh NE 6.0 mph9.7 kmh 30.35 in1027.8 mb 0.00 in0.0 mm 0.00 in0.0 mm 0.00 in0.0 mm
06:51 AM 25.1°F-3.8°C 22.3°F-5.4°C 89% 1.9 mph NE3.1 kmh NE 6.0 mph9.7 kmh 30.35 in1027.8 mb 0.00 in0.0 mm 0.00 in0.0 mm 0.00 in0.0 mm
06:56 AM 25.1°F-3.8°C 22.3°F-5.4°C 89% 2.0 mph NE3.2 kmh NE 6.0 mph9.7 kmh 30.36 in1028.1 mb 0.00 in0.0 mm 0.00 in0.0 mm 0.00 in0.0 mm
07:01 AM 25.0°F-3.9°C 22.2°F-5.4°C 89% 2.0 mph NE3.2 kmh NE 6.0 mph9.7 kmh 30.36 in1028.1 mb 0.00 in0.0 mm 0.00 in0.0 mm 0.00 in0.0 mm
07:05 AM 25.0°F-3.9°C 22.2°F-5.4°C 89% 1.5 mph NE2.4 kmh NE 6.0 mph9.7 kmh 30.36 in1028.1 mb 0.00 in0.0 mm 0.00 in0.0 mm 0.00 in0.0 mm
07:10 AM 25.0°F-3.9°C 22.2°F-5.4°C 89% 2.1 mph NE3.4 kmh NE 6.0 mph9.7 kmh 30.37 in1028.4 mb 0.00 in0.0 mm 0.00 in0.0 mm 0.00 in0.0 mm
07:15 AM 25.1°F-3.8°C 22.6°F-5.2°C 90% 1.9 mph NE3.1 kmh NE 6.0 mph9.7 kmh 30.37 in1028.4 mb 0.00 in0.0 mm 0.00 in0.0 mm 0.00 in0.0 mm
07:20 AM 25.3°F-3.7°C 22.5°F-5.3°C 89% 1.5 mph NE2.4 kmh NE 6.0 mph9.7 kmh 30.37 in1028.4 mb 0.00 in0.0 mm 0.00 in0.0 mm 0.00 in0.0 mm
07:25 AM 25.5°F-3.6°C 22.7°F-5.2°C 89% 1.1 mph NE1.8 kmh NE 6.0 mph9.7 kmh 30.37 in1028.4 mb 0.00 in0.0 mm 0.00 in0.0 mm 0.00 in0.0 mm
07:30 AM 25.7°F-3.5°C 22.9°F-5.1°C 89% 1.9 mph NE3.1 kmh NE 5.0 mph8.0 kmh 30.37 in1028.4 mb 0.00 in0.0 mm 0.00 in0.0 mm 0.00 in0.0 mm
07:35 AM 25.7°F-3.5°C 22.6°F-5.2°C 88% 3.0 mph NE4.8 kmh NE 7.0 mph11.3 kmh 30.37 in1028.4 mb 0.00 in0.0 mm 0.00 in0.0 mm 0.00 in0.0 mm
07:40 AM 25.8°F-3.4°C 22.7°F-5.2°C 88% 3.8 mph NE6.1 kmh NE 7.0 mph11.3 kmh 30.38 in1028.8 mb 0.00 in0.0 mm 0.00 in0.0 mm 0.00 in0.0 mm
07:46 AM 26.0°F-3.3°C 22.9°F-5.1°C 88% 2.2 mph NE3.5 kmh NE 7.0 mph11.3 kmh 30.38 in1028.8 mb 0.00 in0.0 mm 0.00 in0.0 mm 0.00 in0.0 mm
07:51 AM 26.2°F-3.2°C 22.8°F-5.1°C 87% 2.8 mph NE4.5 kmh NE 7.0 mph11.3 kmh 30.38 in1028.8 mb 0.00 in0.0 mm 0.00 in0.0 mm 0.00 in0.0 mm
07:56 AM 26.5°F-3.1°C 23.1°F-4.9°C 87% 2.3 mph NE3.7 kmh NE 6.0 mph9.7 kmh 30.39 in1029.1 mb 0.00 in0.0 mm 0.00 in0.0 mm 0.00 in0.0 mm
08:01 AM 26.6°F-3.0°C 23.0°F-5.0°C 86% 3.6 mph NE5.8 kmh NE 6.0 mph9.7 kmh 30.39 in1029.1 mb 0.00 in0.0 mm 0.00 in0.0 mm 0.00 in0.0 mm
08:06 AM 26.8°F-2.9°C 23.1°F-4.9°C 86% 2.7 mph NE4.3 kmh NE 6.0 mph9.7 kmh 30.39 in1029.1 mb 0.00 in0.0 mm 0.00 in0.0 mm 0.00 in0.0 mm
08:11 AM 27.0°F-2.8°C 23.1°F-4.9°C 85% 2.2 mph NE3.5 kmh NE 6.0 mph9.7 kmh 30.39 in1029.1 mb 0.00 in0.0 mm 0.00 in0.0 mm 0.00 in0.0 mm
08:16 AM 27.2°F-2.7°C 23.3°F-4.8°C 85% 4.1 mph NE6.6 kmh NE 7.0 mph11.3 kmh 30.40 in1029.5 mb 0.00 in0.0 mm 0.00 in0.0 mm 0.00 in0.0 mm
08:21 AM 27.6°F-2.4°C 23.7°F-4.6°C 85% 1.5 mph NE2.4 kmh NE 7.0 mph11.3 kmh 30.40 in1029.5 mb 0.00 in0.0 mm 0.00 in0.0 mm 0.00 in0.0 mm
08:26 AM 27.7°F-2.4°C 23.2°F-4.9°C 83% 4.6 mph NE7.4 kmh NE 10.0 mph16.1 kmh 30.40 in1029.5 mb 0.00 in0.0 mm 0.00 in0.0 mm 0.00 in0.0 mm
08:31 AM 27.8°F-2.3°C 23.0°F-5.0°C 82% 5.1 mph NE8.2 kmh NE 10.0 mph16.1 kmh 30.40 in1029.5 mb 0.00 in0.0 mm 0.00 in0.0 mm 0.00 in0.0 mm
08:36 AM 28.1°F-2.2°C 23.3°F-4.8°C 82% 4.7 mph NE7.6 kmh NE 10.0 mph16.1 kmh 30.41 in1029.8 mb 0.00 in0.0 mm 0.00 in0.0 mm 0.00 in0.0 mm
08:41 AM 28.7°F-1.8°C 23.6°F-4.7°C 81% 4.5 mph NE7.2 kmh NE 10.0 mph16.1 kmh 30.41 in1029.8 mb 0.00 in0.0 mm 0.00 in0.0 mm 0.00 in0.0 mm
08:46 AM 28.9°F-1.7°C 23.2°F-4.9°C 79% 5.1 mph NE8.2 kmh NE 10.0 mph16.1 kmh 30.41 in1029.8 mb 0.00 in0.0 mm 0.00 in0.0 mm 0.00 in0.0 mm
08:51 AM 29.3°F-1.5°C 23.3°F-4.8°C 78% 6.4 mph ENE10.3 kmh ENE 11.0 mph17.7 kmh 30.41 in1029.8 mb 0.00 in0.0 mm 0.00 in0.0 mm 0.00 in0.0 mm
08:56 AM 29.7°F-1.3°C 23.7°F-4.6°C 78% 4.2 mph ENE6.8 kmh ENE 11.0 mph17.7 kmh 30.41 in1029.8 mb 0.00 in0.0 mm 0.00 in0.0 mm 0.00 in0.0 mm
09:01 AM 29.9°F-1.2°C 23.3°F-4.8°C 76% 6.4 mph ENE10.3 kmh ENE 12.0 mph19.3 kmh 30.42 in1030.1 mb 0.00 in0.0 mm 0.00 in0.0 mm 0.00 in0.0 mm
09:06 AM 30.2°F-1.0°C 23.6°F-4.7°C 76% 5.8 mph ENE9.3 kmh ENE 12.0 mph19.3 kmh 30.42 in1030.1 mb 0.00 in0.0 mm 0.00 in0.0 mm 0.00 in0.0 mm
09:11 AM 30.5°F-0.8°C 23.9°F-4.5°C 76% 5.5 mph NE8.9 kmh NE 12.0 mph19.3 kmh 30.41 in1029.8 mb 0.00 in0.0 mm 0.00 in0.0 mm 0.00 in0.0 mm
09:16 AM 30.8°F-0.7°C 23.8°F-4.6°C 75% 5.2 mph ENE8.4 kmh ENE 14.0 mph22.5 kmh 30.42 in1030.1 mb 0.00 in0.0 mm 0.00 in0.0 mm 0.00 in0.0 mm
09:21 AM 31.0°F-0.6°C 24.0°F-4.4°C 75% 4.4 mph ENE7.1 kmh ENE 14.0 mph22.5 kmh 30.42 in1030.1 mb 0.00 in0.0 mm 0.00 in0.0 mm 0.00 in0.0 mm
09:26 AM 31.2°F-0.4°C 23.9°F-4.5°C 74% 6.6 mph NE10.6 kmh NE 14.0 mph22.5 kmh 30.41 in1029.8 mb 0.00 in0.0 mm 0.00 in0.0 mm 0.00 in0.0 mm
09:31 AM 31.3°F-0.4°C 24.0°F-4.4°C 74% 7.9 mph NE12.7 kmh NE 14.0 mph22.5 kmh 30.41 in1029.8 mb 0.00 in0.0 mm 0.00 in0.0 mm 0.00 in0.0 mm
09:36 AM 31.4°F-0.3°C 23.8°F-4.6°C 73% 4.9 mph NE7.9 kmh NE 14.0 mph22.5 kmh 30.42 in1030.1 mb 0.00 in0.0 mm 0.00 in0.0 mm 0.00 in0.0 mm
09:41 AM 31.8°F-0.1°C 24.2°F-4.3°C 73% 2.9 mph E4.7 kmh E 14.0 mph22.5 kmh 30.42 in1030.1 mb 0.00 in0.0 mm 0.00 in0.0 mm 0.00 in0.0 mm
09:46 AM 32.2°F0.1°C 24.2°F-4.3°C 72% 5.4 mph ENE8.7 kmh ENE 13.0 mph20.9 kmh 30.42 in1030.1 mb 0.00 in0.0 mm 0.00 in0.0 mm 0.00 in0.0 mm
09:51 AM 32.5°F0.3°C 24.5°F-4.2°C 72% 2.6 mph NE4.2 kmh NE 12.0 mph19.3 kmh 30.42 in1030.1 mb 0.00 in0.0 mm 0.00 in0.0 mm 0.00 in0.0 mm
09:56 AM 33.1°F0.6°C 24.8°F-4.0°C 71% 3.5 mph ENE5.6 kmh ENE 12.0 mph19.3 kmh 30.42 in1030.1 mb 0.00 in0.0 mm 0.00 in0.0 mm 0.00 in0.0 mm
10:01 AM 33.4°F0.8°C 24.4°F-4.2°C 69% 5.2 mph E8.4 kmh E 12.0 mph19.3 kmh 30.42 in1030.1 mb 0.00 in0.0 mm 0.00 in0.0 mm 0.00 in0.0 mm
10:06 AM 33.7°F0.9°C 24.3°F-4.3°C 68% 2.0 mph ENE3.2 kmh ENE 10.0 mph16.1 kmh 30.42 in1030.1 mb 0.00 in0.0 mm 0.00 in0.0 mm 0.00 in0.0 mm
10:11 AM 33.5°F0.8°C 23.7°F-4.6°C 67% 4.7 mph NE7.6 kmh NE 11.0 mph17.7 kmh 30.42 in1030.1 mb 0.00 in0.0 mm 0.00 in0.0 mm 0.00 in0.0 mm
10:16 AM 34.3°F1.3°C 24.5°F-4.2°C 67% 1.6 mph ENE2.6 kmh ENE 11.0 mph17.7 kmh 30.42 in1030.1 mb 0.00 in0.0 mm 0.00 in0.0 mm 0.00 in0.0 mm
10:21 AM 34.1°F1.2°C 23.6°F-4.7°C 65% 6.1 mph NE9.8 kmh NE 12.0 mph19.3 kmh 30.42 in1030.1 mb 0.00 in0.0 mm 0.00 in0.0 mm 0.00 in0.0 mm
10:26 AM 34.7°F1.5°C 24.9°F-3.9°C 67% 3.0 mph NE4.8 kmh NE 12.0 mph19.3 kmh 30.41 in1029.8 mb 0.00 in0.0 mm 0.00 in0.0 mm 0.00 in0.0 mm
10:31 AM 35.0°F1.7°C 24.4°F-4.2°C 65% 3.8 mph E6.1 kmh E 12.0 mph19.3 kmh 30.42 in1030.1 mb 0.00 in0.0 mm 0.00 in0.0 mm 0.00 in0.0 mm
10:36 AM 35.3°F1.8°C 24.4°F-4.2°C 64% 5.1 mph ENE8.2 kmh ENE 12.0 mph19.3 kmh 30.41 in1029.8 mb 0.00 in0.0 mm 0.00 in0.0 mm 0.00 in0.0 mm
10:41 AM 35.5°F1.9°C 25.0°F-3.9°C 65% 3.1 mph NE5.0 kmh NE 11.0 mph17.7 kmh 30.42 in1030.1 mb 0.00 in0.0 mm 0.00 in0.0 mm 0.00 in0.0 mm
10:46 AM 35.9°F2.2°C 24.2°F-4.3°C 62% 4.8 mph ENE7.7 kmh ENE 11.0 mph17.7 kmh 30.41 in1029.8 mb 0.00 in0.0 mm 0.00 in0.0 mm 0.00 in0.0 mm
10:51 AM 35.7°F2.1°C 23.6°F-4.7°C 61% 6.6 mph ENE10.6 kmh ENE 14.0 mph22.5 kmh 30.41 in1029.8 mb 0.00 in0.0 mm 0.00 in0.0 mm 0.00 in0.0 mm
10:56 AM 35.9°F2.2°C 23.0°F-5.0°C 59% 5.9 mph NE9.5 kmh NE 14.0 mph22.5 kmh 30.41 in1029.8 mb 0.00 in0.0 mm 0.00 in0.0 mm 0.00 in0.0 mm
11:01 AM 36.1°F2.3°C 22.8°F-5.1°C 58% 6.5 mph NE10.5 kmh NE 16.0 mph25.7 kmh 30.42 in1030.1 mb 0.00 in0.0 mm 0.00 in0.0 mm 0.00 in0.0 mm
11:06 AM 36.2°F2.3°C 22.5°F-5.3°C 57% 4.2 mph E6.8 kmh E 16.0 mph25.7 kmh 30.41 in1029.8 mb 0.00 in0.0 mm 0.00 in0.0 mm 0.00 in0.0 mm
11:11 AM 36.4°F2.4°C 22.6°F-5.2°C 57% 5.3 mph NE8.5 kmh NE 16.0 mph25.7 kmh 30.41 in1029.8 mb 0.00 in0.0 mm 0.00 in0.0 mm 0.00 in0.0 mm
11:16 AM 36.7°F2.6°C 22.9°F-5.1°C 57% 6.0 mph ENE9.7 kmh ENE 16.0 mph25.7 kmh 30.41 in1029.8 mb 0.00 in0.0 mm 0.00 in0.0 mm 0.00 in0.0 mm
11:21 AM 37.1°F2.8°C 23.3°F-4.8°C 57% 4.2 mph NE6.8 kmh NE 12.0 mph19.3 kmh 30.41 in1029.8 mb 0.00 in0.0 mm 0.00 in0.0 mm 0.00 in0.0 mm
11:26 AM 37.3°F2.9°C 23.1°F-4.9°C 56% 4.7 mph NE7.6 kmh NE 12.0 mph19.3 kmh 30.41 in1029.8 mb 0.00 in0.0 mm 0.00 in0.0 mm 0.00 in0.0 mm
11:31 AM 37.9°F3.3°C 23.6°F-4.7°C 56% 3.0 mph NE4.8 kmh NE 12.0 mph19.3 kmh 30.41 in1029.8 mb 0.00 in0.0 mm 0.00 in0.0 mm 0.00 in0.0 mm
11:36 AM 37.9°F3.3°C 22.3°F-5.4°C 53% 3.3 mph ENE5.3 kmh ENE 11.0 mph17.7 kmh 30.40 in1029.5 mb 0.00 in0.0 mm 0.00 in0.0 mm 0.00 in0.0 mm
11:41 AM 37.9°F3.3°C 22.3°F-5.4°C 53% 6.1 mph E9.8 kmh E 12.0 mph19.3 kmh 30.40 in1029.5 mb 0.00 in0.0 mm 0.00 in0.0 mm 0.00 in0.0 mm
11:46 AM 38.1°F3.4°C 22.9°F-5.1°C 54% 6.1 mph E9.8 kmh E 13.0 mph20.9 kmh 30.40 in1029.5 mb 0.00 in0.0 mm 0.00 in0.0 mm 0.00 in0.0 mm
11:51 AM 38.3°F3.5°C 23.1°F-4.9°C 54% 5.6 mph E9.0 kmh E 13.0 mph20.9 kmh 30.40 in1029.5 mb 0.00 in0.0 mm 0.00 in0.0 mm 0.00 in0.0 mm
11:56 AM 38.2°F3.4°C 22.6°F-5.2°C 53% 5.1 mph NE8.2 kmh NE 13.0 mph20.9 kmh 30.40 in1029.5 mb 0.00 in0.0 mm 0.00 in0.0 mm 0.00 in0.0 mm
12:01 PM 38.5°F3.6°C 22.4°F-5.3°C 52% 6.3 mph NE10.1 kmh NE 13.0 mph20.9 kmh 30.39 in1029.1 mb 0.00 in0.0 mm 0.00 in0.0 mm 0.00 in0.0 mm
12:05 PM 38.9°F3.8°C 22.7°F-5.2°C 52% 4.1 mph ENE6.6 kmh ENE 13.0 mph20.9 kmh 30.39 in1029.1 mb 0.00 in0.0 mm 0.00 in0.0 mm 0.00 in0.0 mm
12:10 PM 39.1°F3.9°C 22.4°F-5.3°C 51% 6.3 mph NE10.1 kmh NE 13.0 mph20.9 kmh 30.39 in1029.1 mb 0.00 in0.0 mm 0.00 in0.0 mm 0.00 in0.0 mm
12:15 PM 39.0°F3.9°C 21.9°F-5.6°C 50% 7.0 mph ENE11.3 kmh ENE 13.0 mph20.9 kmh 30.39 in1029.1 mb 0.00 in0.0 mm 0.00 in0.0 mm 0.00 in0.0 mm
12:20 PM 39.1°F3.9°C 22.4°F-5.3°C 51% 6.2 mph NE10.0 kmh NE 12.0 mph19.3 kmh 30.39 in1029.1 mb 0.00 in0.0 mm 0.00 in0.0 mm 0.00 in0.0 mm
12:25 PM 39.3°F4.1°C 22.7°F-5.2°C 51% 3.2 mph NE5.1 kmh NE 12.0 mph19.3 kmh 30.38 in1028.8 mb 0.00 in0.0 mm 0.00 in0.0 mm 0.00 in0.0 mm
12:30 PM 39.7°F4.3°C 23.5°F-4.7°C 52% 1.9 mph NNE3.1 kmh NNE 12.0 mph19.3 kmh 30.38 in1028.8 mb 0.00 in0.0 mm 0.00 in0.0 mm 0.00 in0.0 mm
12:35 PM 40.1°F4.5°C 23.4°F-4.8°C 51% 7.5 mph NE12.1 kmh NE 13.0 mph20.9 kmh 30.38 in1028.8 mb 0.00 in0.0 mm 0.00 in0.0 mm 0.00 in0.0 mm
12:40 PM 40.0°F4.4°C 23.3°F-4.8°C 51% 3.9 mph ENE6.3 kmh ENE 13.0 mph20.9 kmh 30.37 in1028.4 mb 0.00 in0.0 mm 0.00 in0.0 mm 0.00 in0.0 mm
12:45 PM 40.5°F4.7°C 23.3°F-4.8°C 50% 6.0 mph ENE9.7 kmh ENE 13.0 mph20.9 kmh 30.36 in1028.1 mb 0.00 in0.0 mm 0.00 in0.0 mm 0.00 in0.0 mm
12:50 PM 40.7°F4.8°C 23.0°F-5.0°C 49% 3.1 mph ENE5.0 kmh ENE 13.0 mph20.9 kmh 30.36 in1028.1 mb 0.00 in0.0 mm 0.00 in0.0 mm 0.00 in0.0 mm
12:55 PM 41.2°F5.1°C 22.9°F-5.1°C 48% 4.3 mph NE6.9 kmh NE 11.0 mph17.7 kmh 30.36 in1028.1 mb 0.00 in0.0 mm 0.00 in0.0 mm 0.00 in0.0 mm
01:00 PM 41.2°F5.1°C 22.4°F-5.3°C 47% 5.4 mph E8.7 kmh E 11.0 mph17.7 kmh 30.36 in1028.1 mb 0.00 in0.0 mm 0.00 in0.0 mm 0.00 in0.0 mm
01:05 PM 41.5°F5.3°C 23.7°F-4.6°C 49% 4.8 mph E7.7 kmh E 13.0 mph20.9 kmh 30.36 in1028.1 mb 0.00 in0.0 mm 0.00 in0.0 mm 0.00 in0.0 mm
01:10 PM 41.4°F5.2°C 22.7°F-5.2°C 47% 5.2 mph E8.4 kmh E 13.0 mph20.9 kmh 30.36 in1028.1 mb 0.00 in0.0 mm 0.00 in0.0 mm 0.00 in0.0 mm
01:15 PM 41.6°F5.3°C 22.8°F-5.1°C 47% 4.1 mph E6.6 kmh E 13.0 mph20.9 kmh 30.35 in1027.8 mb 0.00 in0.0 mm 0.00 in0.0 mm 0.00 in0.0 mm
01:20 PM 41.9°F5.5°C 22.5°F-5.3°C 46% 5.9 mph NE9.5 kmh NE 13.0 mph20.9 kmh 30.35 in1027.8 mb 0.00 in0.0 mm 0.00 in0.0 mm 0.00 in0.0 mm
01:25 PM 42.0°F5.6°C 23.1°F-4.9°C 47% 5.6 mph NE9.0 kmh NE 12.0 mph19.3 kmh 30.35 in1027.8 mb 0.00 in0.0 mm 0.00 in0.0 mm 0.00 in0.0 mm
01:30 PM 42.4°F5.8°C 23.0°F-5.0°C 46% 5.0 mph NE8.0 kmh NE 12.0 mph19.3 kmh 30.35 in1027.8 mb 0.00 in0.0 mm 0.00 in0.0 mm 0.00 in0.0 mm
01:35 PM 42.5°F5.8°C 23.6°F-4.7°C 47% 2.8 mph ESE4.5 kmh ESE 12.0 mph19.3 kmh 30.35 in1027.8 mb 0.00 in0.0 mm 0.00 in0.0 mm 0.00 in0.0 mm
01:40 PM 42.8°F6.0°C 23.9°F-4.5°C 47% 3.1 mph NE5.0 kmh NE 10.0 mph16.1 kmh 30.34 in1027.4 mb 0.00 in0.0 mm 0.00 in0.0 mm 0.00 in0.0 mm
01:45 PM 43.1°F6.2°C 23.1°F-4.9°C 45% 6.5 mph NE10.5 kmh NE 11.0 mph17.7 kmh 30.34 in1027.4 mb 0.00 in0.0 mm 0.00 in0.0 mm 0.00 in0.0 mm
01:50 PM 43.1°F6.2°C 24.1°F-4.4°C 47% 2.4 mph E3.9 kmh E 11.0 mph17.7 kmh 30.34 in1027.4 mb 0.00 in0.0 mm 0.00 in0.0 mm 0.00 in0.0 mm
01:55 PM 43.3°F6.3°C 23.2°F-4.9°C 45% 6.1 mph ENE9.8 kmh ENE 13.0 mph20.9 kmh 30.33 in1027.1 mb 0.00 in0.0 mm 0.00 in0.0 mm 0.00 in0.0 mm
02:00 PM 43.3°F6.3°C 23.2°F-4.9°C 45% 3.6 mph NNE5.8 kmh NNE 13.0 mph20.9 kmh 30.33 in1027.1 mb 0.00 in0.0 mm 0.00 in0.0 mm 0.00 in0.0 mm
02:05 PM 43.4°F6.3°C 22.8°F-5.1°C 44% 2.6 mph NE4.2 kmh NE 13.0 mph20.9 kmh 30.33 in1027.1 mb 0.00 in0.0 mm 0.00 in0.0 mm 0.00 in0.0 mm
02:10 PM 44.0°F6.7°C 24.4°F-4.2°C 46% 3.6 mph E5.8 kmh E 13.0 mph20.9 kmh 30.32 in1026.8 mb 0.00 in0.0 mm 0.00 in0.0 mm 0.00 in0.0 mm
02:15 PM 44.1°F6.7°C 24.0°F-4.4°C 45% 2.1 mph E3.4 kmh E 11.0 mph17.7 kmh 30.32 in1026.8 mb 0.00 in0.0 mm 0.00 in0.0 mm 0.00 in0.0 mm
02:20 PM 44.3°F6.8°C 23.0°F-5.0°C 43% 7.6 mph E12.2 kmh E 13.0 mph20.9 kmh 30.32 in1026.8 mb 0.00 in0.0 mm 0.00 in0.0 mm 0.00 in0.0 mm
02:25 PM 44.1°F6.7°C 23.4°F-4.8°C 44% 4.3 mph E6.9 kmh E 13.0 mph20.9 kmh 30.32 in1026.8 mb 0.00 in0.0 mm 0.00 in0.0 mm 0.00 in0.0 mm
02:30 PM 44.2°F6.8°C 23.0°F-5.0°C 43% 4.5 mph ENE7.2 kmh ENE 13.0 mph20.9 kmh 30.32 in1026.8 mb 0.00 in0.0 mm 0.00 in0.0 mm 0.00 in0.0 mm
02:35 PM 44.5°F6.9°C 22.7°F-5.2°C 42% 6.4 mph ENE10.3 kmh ENE 13.0 mph20.9 kmh 30.32 in1026.8 mb 0.00 in0.0 mm 0.00 in0.0 mm 0.00 in0.0 mm
02:40 PM 44.7°F7.1°C 23.4°F-4.8°C 43% 3.4 mph ENE5.5 kmh ENE 12.0 mph19.3 kmh 30.32 in1026.8 mb 0.00 in0.0 mm 0.00 in0.0 mm 0.00 in0.0 mm
02:45 PM 44.4°F6.9°C 22.0°F-5.6°C 41% 5.5 mph E8.9 kmh E 16.0 mph25.7 kmh 30.32 in1026.8 mb 0.00 in0.0 mm 0.00 in0.0 mm 0.00 in0.0 mm
02:50 PM 44.4°F6.9°C 22.1°F-5.5°C 41% 7.0 mph E11.3 kmh E 16.0 mph25.7 kmh 30.31 in1026.4 mb 0.00 in0.0 mm 0.00 in0.0 mm 0.00 in0.0 mm
02:55 PM 44.6°F7.0°C 22.3°F-5.4°C 41% 4.0 mph E6.4 kmh E 16.0 mph25.7 kmh 30.31 in1026.4 mb 0.00 in0.0 mm 0.00 in0.0 mm 0.00 in0.0 mm
03:00 PM 44.9°F7.2°C 22.4°F-5.3°C 41% 4.6 mph E7.4 kmh E 16.0 mph25.7 kmh 30.31 in1026.4 mb 0.00 in0.0 mm 0.00 in0.0 mm 0.00 in0.0 mm
03:05 PM 44.8°F7.1°C 22.9°F-5.1°C 42% 4.8 mph ENE7.7 kmh ENE 12.0 mph19.3 kmh 30.31 in1026.4 mb 0.00 in0.0 mm 0.00 in0.0 mm 0.00 in0.0 mm
03:10 PM 45.3°F7.4°C 24.0°F-4.4°C 43% 3.2 mph E5.1 kmh E 12.0 mph19.3 kmh 30.30 in1026.1 mb 0.00 in0.0 mm 0.00 in0.0 mm 0.00 in0.0 mm
03:15 PM 45.3°F7.4°C 23.0°F-5.0°C 41% 5.9 mph ENE9.5 kmh ENE 12.0 mph19.3 kmh 30.31 in1026.4 mb 0.00 in0.0 mm 0.00 in0.0 mm 0.00 in0.0 mm
03:20 PM 45.3°F7.4°C 22.8°F-5.1°C 41% 4.6 mph NE7.4 kmh NE 11.0 mph17.7 kmh 30.30 in1026.1 mb 0.00 in0.0 mm 0.00 in0.0 mm 0.00 in0.0 mm
03:25 PM 45.4°F7.4°C 22.9°F-5.1°C 41% 4.9 mph E7.9 kmh E 11.0 mph17.7 kmh 30.30 in1026.1 mb 0.00 in0.0 mm 0.00 in0.0 mm 0.00 in0.0 mm
03:30 PM 45.1°F7.3°C 22.6°F-5.2°C 41% 6.1 mph E9.8 kmh E 11.0 mph17.7 kmh 30.30 in1026.1 mb 0.00 in0.0 mm 0.00 in0.0 mm 0.00 in0.0 mm
03:35 PM 45.1°F7.3°C 22.6°F-5.2°C 41% 5.2 mph E8.4 kmh E 10.0 mph16.1 kmh 30.30 in1026.1 mb 0.00 in0.0 mm 0.00 in0.0 mm 0.00 in0.0 mm
03:40 PM 45.3°F7.4°C 23.5°F-4.7°C 42% 3.2 mph ENE5.1 kmh ENE 10.0 mph16.1 kmh 30.31 in1026.4 mb 0.00 in0.0 mm 0.00 in0.0 mm 0.00 in0.0 mm
03:45 PM 45.4°F7.4°C 23.6°F-4.7°C 42% 3.8 mph ENE6.1 kmh ENE 10.0 mph16.1 kmh 30.31 in1026.4 mb 0.00 in0.0 mm 0.00 in0.0 mm 0.00 in0.0 mm
03:50 PM 45.6°F7.6°C 23.7°F-4.6°C 42% 3.4 mph E5.5 kmh E 8.0 mph12.9 kmh 30.31 in1026.4 mb 0.00 in0.0 mm 0.00 in0.0 mm 0.00 in0.0 mm
03:55 PM 45.4°F7.4°C 23.5°F-4.7°C 42% 4.8 mph NE7.7 kmh NE 11.0 mph17.7 kmh 30.31 in1026.4 mb 0.00 in0.0 mm 0.00 in0.0 mm 0.00 in0.0 mm
04:00 PM 45.5°F7.5°C 23.6°F-4.7°C 42% 4.0 mph E6.4 kmh E 11.0 mph17.7 kmh 30.31 in1026.4 mb 0.00 in0.0 mm 0.00 in0.0 mm 0.00 in0.0 mm
04:05 PM 45.8°F7.7°C 24.4°F-4.2°C 43% 2.8 mph ENE4.5 kmh ENE 11.0 mph17.7 kmh 30.31 in1026.4 mb 0.00 in0.0 mm 0.00 in0.0 mm 0.00 in0.0 mm
04:10 PM 45.5°F7.5°C 23.0°F-5.0°C 41% 3.5 mph NE5.6 kmh NE 11.0 mph17.7 kmh 30.31 in1026.4 mb 0.00 in0.0 mm 0.00 in0.0 mm 0.00 in0.0 mm
04:15 PM 45.5°F7.5°C 23.7°F-4.6°C 42% 3.4 mph ENE5.5 kmh ENE 9.0 mph14.5 kmh 30.31 in1026.4 mb 0.00 in0.0 mm 0.00 in0.0 mm 0.00 in0.0 mm
04:20 PM 45.5°F7.5°C 24.1°F-4.4°C 43% 4.6 mph NE7.4 kmh NE 9.0 mph14.5 kmh 30.31 in1026.4 mb 0.00 in0.0 mm 0.00 in0.0 mm 0.00 in0.0 mm
04:25 PM 45.5°F7.5°C 24.1°F-4.4°C 43% 1.5 mph E2.4 kmh E 9.0 mph14.5 kmh 30.32 in1026.8 mb 0.00 in0.0 mm 0.00 in0.0 mm 0.00 in0.0 mm
04:30 PM 45.5°F7.5°C 23.7°F-4.6°C 42% 1.7 mph NE2.7 kmh NE 9.0 mph14.5 kmh 30.31 in1026.4 mb 0.00 in0.0 mm 0.00 in0.0 mm 0.00 in0.0 mm
04:35 PM 45.5°F7.5°C 24.1°F-4.4°C 43% 3.1 mph NE5.0 kmh NE 9.0 mph14.5 kmh 30.32 in1026.8 mb 0.00 in0.0 mm 0.00 in0.0 mm 0.00 in0.0 mm
04:40 PM 45.4°F7.4°C 23.5°F-4.7°C 42% 3.0 mph E4.8 kmh E 7.0 mph11.3 kmh 30.32 in1026.8 mb 0.00 in0.0 mm 0.00 in0.0 mm 0.00 in0.0 mm
04:45 PM 45.3°F7.4°C 24.0°F-4.4°C 43% 4.0 mph E6.4 kmh E 8.0 mph12.9 kmh 30.32 in1026.8 mb 0.00 in0.0 mm 0.00 in0.0 mm 0.00 in0.0 mm
04:50 PM 45.2°F7.3°C 23.4°F-4.8°C 42% 3.2 mph E5.1 kmh E 8.0 mph12.9 kmh 30.31 in1026.4 mb 0.00 in0.0 mm 0.00 in0.0 mm 0.00 in0.0 mm
04:55 PM 45.2°F7.3°C 24.0°F-4.4°C 43% 2.9 mph ENE4.7 kmh ENE 8.0 mph12.9 kmh 30.32 in1026.8 mb 0.00 in0.0 mm 0.00 in0.0 mm 0.00 in0.0 mm
05:00 PM 45.1°F7.3°C 24.5°F-4.2°C 44% 2.3 mph ENE3.7 kmh ENE 8.0 mph12.9 kmh 30.32 in1026.8 mb 0.00 in0.0 mm 0.00 in0.0 mm 0.00 in0.0 mm
05:04 PM 44.9°F7.2°C 24.2°F-4.3°C 44% 1.9 mph E3.1 kmh E 7.0 mph11.3 kmh 30.32 in1026.8 mb 0.00 in0.0 mm 0.00 in0.0 mm 0.00 in0.0 mm
05:09 PM 44.6°F7.0°C 24.4°F-4.2°C 45% 1.4 mph E2.3 kmh E 6.0 mph9.7 kmh 30.33 in1027.1 mb 0.00 in0.0 mm 0.00 in0.0 mm 0.00 in0.0 mm
05:14 PM 44.5°F6.9°C 24.5°F-4.2°C 45% 1.5 mph ENE2.4 kmh ENE 5.0 mph8.0 kmh 30.33 in1027.1 mb 0.00 in0.0 mm 0.00 in0.0 mm 0.00 in0.0 mm
05:19 PM 44.3°F6.8°C 24.7°F-4.1°C 46% 2.3 mph NE3.7 kmh NE 5.0 mph8.0 kmh 30.33 in1027.1 mb 0.00 in0.0 mm 0.00 in0.0 mm 0.00 in0.0 mm
05:24 PM 44.0°F6.7°C 24.4°F-4.2°C 46% 2.4 mph NE3.9 kmh NE 5.0 mph8.0 kmh 30.33 in1027.1 mb 0.00 in0.0 mm 0.00 in0.0 mm 0.00 in0.0 mm
05:29 PM 43.7°F6.5°C 24.8°F-4.0°C 47% 1.2 mph NE1.9 kmh NE 5.0 mph8.0 kmh 30.33 in1027.1 mb 0.00 in0.0 mm 0.00 in0.0 mm 0.00 in0.0 mm
05:34 PM 43.5°F6.4°C 25.0°F-3.9°C 48% 2.2 mph ENE3.5 kmh ENE 5.0 mph8.0 kmh 30.33 in1027.1 mb 0.00 in0.0 mm 0.00 in0.0 mm 0.00 in0.0 mm
05:39 PM 43.3°F6.3°C 24.8°F-4.0°C 48% 3.2 mph NE5.1 kmh NE 5.0 mph8.0 kmh 30.33 in1027.1 mb 0.00 in0.0 mm 0.00 in0.0 mm 0.00 in0.0 mm
05:44 PM 43.1°F6.2°C 24.7°F-4.1°C 48% 3.0 mph ENE4.8 kmh ENE 5.0 mph8.0 kmh 30.33 in1027.1 mb 0.00 in0.0 mm 0.00 in0.0 mm 0.00 in0.0 mm
05:49 PM 42.8°F6.0°C 24.9°F-3.9°C 49% 2.8 mph ENE4.5 kmh ENE 5.0 mph8.0 kmh 30.33 in1027.1 mb 0.00 in0.0 mm 0.00 in0.0 mm 0.00 in0.0 mm
05:54 PM 42.5°F5.8°C 25.1°F-3.8°C 50% 1.8 mph ENE2.9 kmh ENE 5.0 mph8.0 kmh 30.33 in1027.1 mb 0.00 in0.0 mm 0.00 in0.0 mm 0.00 in0.0 mm
05:59 PM 42.2°F5.7°C 25.3°F-3.7°C 51% 1.5 mph ENE2.4 kmh ENE 5.0 mph8.0 kmh 30.34 in1027.4 mb 0.00 in0.0 mm 0.00 in0.0 mm 0.00 in0.0 mm
06:04 PM 42.0°F5.6°C 25.1°F-3.8°C 51% 1.1 mph NE1.8 kmh NE 5.0 mph8.0 kmh 30.34 in1027.4 mb 0.00 in0.0 mm 0.00 in0.0 mm 0.00 in0.0 mm
06:09 PM 41.8°F5.4°C 25.4°F-3.7°C 52% 1.2 mph NE1.9 kmh NE 5.0 mph8.0 kmh 30.34 in1027.4 mb 0.00 in0.0 mm 0.00 in0.0 mm 0.00 in0.0 mm
06:14 PM 41.6°F5.3°C 25.3°F-3.7°C 52% 1.6 mph NE2.6 kmh NE 5.0 mph8.0 kmh 30.35 in1027.8 mb 0.00 in0.0 mm 0.00 in0.0 mm 0.00 in0.0 mm
06:19 PM 41.5°F5.3°C 25.6°F-3.6°C 53% 1.3 mph ENE2.1 kmh ENE 4.0 mph6.4 kmh 30.35 in1027.8 mb 0.00 in0.0 mm 0.00 in0.0 mm 0.00 in0.0 mm
06:24 PM 41.3°F5.2°C 25.4°F-3.7°C 53% 1.9 mph NE3.1 kmh NE 4.0 mph6.4 kmh 30.35 in1027.8 mb 0.00 in0.0 mm 0.00 in0.0 mm 0.00 in0.0 mm
06:29 PM 41.1°F5.1°C 25.3°F-3.7°C 53% 1.6 mph E2.6 kmh E 4.0 mph6.4 kmh 30.35 in1027.8 mb 0.00 in0.0 mm 0.00 in0.0 mm 0.00 in0.0 mm
06:34 PM 40.9°F4.9°C 25.5°F-3.6°C 54% 2.3 mph NE3.7 kmh NE 4.0 mph6.4 kmh 30.35 in1027.8 mb 0.00 in0.0 mm 0.00 in0.0 mm 0.00 in0.0 mm
06:39 PM 40.8°F4.9°C 25.4°F-3.7°C 54% 2.4 mph ENE3.9 kmh ENE 5.0 mph8.0 kmh 30.35 in1027.8 mb 0.00 in0.0 mm 0.00 in0.0 mm 0.00 in0.0 mm
06:44 PM 40.8°F4.9°C 25.4°F-3.7°C 54% 3.6 mph NE5.8 kmh NE 7.0 mph11.3 kmh 30.35 in1027.8 mb 0.00 in0.0 mm 0.00 in0.0 mm 0.00 in0.0 mm
06:49 PM 40.8°F4.9°C 25.4°F-3.7°C 54% 2.8 mph ENE4.5 kmh ENE 7.0 mph11.3 kmh 30.35 in1027.8 mb 0.00 in0.0 mm 0.00 in0.0 mm 0.00 in0.0 mm
06:54 PM 40.7°F4.8°C 25.8°F-3.4°C 55% 2.0 mph ENE3.2 kmh ENE 7.0 mph11.3 kmh 30.36 in1028.1 mb 0.00 in0.0 mm 0.00 in0.0 mm 0.00 in0.0 mm
06:59 PM 40.5°F4.7°C 26.1°F-3.3°C 56% 1.4 mph ENE2.3 kmh ENE 7.0 mph11.3 kmh 30.36 in1028.1 mb 0.00 in0.0 mm 0.00 in0.0 mm 0.00 in0.0 mm
07:04 PM 40.4°F4.7°C 26.0°F-3.3°C 56% 1.9 mph ENE3.1 kmh ENE 5.0 mph8.0 kmh 30.36 in1028.1 mb 0.00 in0.0 mm 0.00 in0.0 mm 0.00 in0.0 mm
07:09 PM 40.1°F4.5°C 26.1°F-3.3°C 57% 1.7 mph ENE2.7 kmh ENE 5.0 mph8.0 kmh 30.36 in1028.1 mb 0.00 in0.0 mm 0.00 in0.0 mm 0.00 in0.0 mm
07:14 PM 39.9°F4.4°C 25.9°F-3.4°C 57% 1.2 mph ENE1.9 kmh ENE 4.0 mph6.4 kmh 30.36 in1028.1 mb 0.00 in0.0 mm 0.00 in0.0 mm 0.00 in0.0 mm
07:19 PM 39.7°F4.3°C 26.2°F-3.2°C 58% 1.5 mph ENE2.4 kmh ENE 3.0 mph4.8 kmh 30.36 in1028.1 mb 0.00 in0.0 mm 0.00 in0.0 mm 0.00 in0.0 mm
07:24 PM 39.5°F4.2°C 26.0°F-3.3°C 58% 1.1 mph ENE1.8 kmh ENE 3.0 mph4.8 kmh 30.37 in1028.4 mb 0.00 in0.0 mm 0.00 in0.0 mm 0.00 in0.0 mm
07:29 PM 39.3°F4.1°C 26.2°F-3.2°C 59% 1.1 mph E1.8 kmh E 3.0 mph4.8 kmh 30.37 in1028.4 mb 0.00 in0.0 mm 0.00 in0.0 mm 0.00 in0.0 mm
07:34 PM 39.2°F4.0°C 26.1°F-3.3°C 59% 1.2 mph ENE1.9 kmh ENE 3.0 mph4.8 kmh 30.37 in1028.4 mb 0.00 in0.0 mm 0.00 in0.0 mm 0.00 in0.0 mm
07:39 PM 39.1°F3.9°C 26.4°F-3.1°C 60% 1.4 mph ENE2.3 kmh ENE 3.0 mph4.8 kmh 30.38 in1028.8 mb 0.00 in0.0 mm 0.00 in0.0 mm 0.00 in0.0 mm
07:44 PM 39.0°F3.9°C 26.3°F-3.2°C 60% 1.2 mph ENE1.9 kmh ENE 3.0 mph4.8 kmh 30.38 in1028.8 mb 0.00 in0.0 mm 0.00 in0.0 mm 0.00 in0.0 mm
07:49 PM 38.8°F3.8°C 26.1°F-3.3°C 60% 1.6 mph ENE2.6 kmh ENE 3.0 mph4.8 kmh 30.38 in1028.8 mb 0.00 in0.0 mm 0.00 in0.0 mm 0.00 in0.0 mm
07:54 PM 38.7°F3.7°C 26.1°F-3.3°C 60% 2.7 mph ENE4.3 kmh ENE 6.0 mph9.7 kmh 30.38 in1028.8 mb 0.00 in0.0 mm 0.00 in0.0 mm 0.00 in0.0 mm
07:59 PM 38.6°F3.7°C 26.4°F-3.1°C 61% 2.0 mph NE3.2 kmh NE 6.0 mph9.7 kmh 30.38 in1028.8 mb 0.00 in0.0 mm 0.00 in0.0 mm 0.00 in0.0 mm
08:04 PM 38.5°F3.6°C 26.3°F-3.2°C 61% 2.7 mph ENE4.3 kmh ENE 6.0 mph9.7 kmh 30.38 in1028.8 mb 0.00 in0.0 mm 0.00 in0.0 mm 0.00 in0.0 mm
08:09 PM 38.3°F3.5°C 26.4°F-3.1°C 62% 2.9 mph NE4.7 kmh NE 6.0 mph9.7 kmh 30.37 in1028.4 mb 0.00 in0.0 mm 0.00 in0.0 mm 0.00 in0.0 mm
08:14 PM 38.1°F3.4°C 26.6°F-3.0°C 63% 2.0 mph ENE3.2 kmh ENE 6.0 mph9.7 kmh 30.38 in1028.8 mb 0.00 in0.0 mm 0.00 in0.0 mm 0.00 in0.0 mm
08:19 PM 37.9°F3.3°C 26.5°F-3.1°C 63% 2.1 mph ENE3.4 kmh ENE 6.0 mph9.7 kmh 30.38 in1028.8 mb 0.00 in0.0 mm 0.00 in0.0 mm 0.00 in0.0 mm
08:24 PM 37.7°F3.2°C 26.7°F-2.9°C 64% 2.0 mph ENE3.2 kmh ENE 6.0 mph9.7 kmh 30.38 in1028.8 mb 0.00 in0.0 mm 0.00 in0.0 mm 0.00 in0.0 mm
08:29 PM 37.5°F3.1°C 26.8°F-2.9°C 65% 2.3 mph ENE3.7 kmh ENE 6.0 mph9.7 kmh 30.38 in1028.8 mb 0.00 in0.0 mm 0.00 in0.0 mm 0.00 in0.0 mm
08:34 PM 37.4°F3.0°C 26.8°F-2.9°C 65% 2.7 mph ENE4.3 kmh ENE 7.0 mph11.3 kmh 30.38 in1028.8 mb 0.00 in0.0 mm 0.00 in0.0 mm 0.00 in0.0 mm
08:39 PM 37.3°F2.9°C 26.7°F-2.9°C 65% 2.6 mph ENE4.2 kmh ENE 7.0 mph11.3 kmh 30.37 in1028.4 mb 0.00 in0.0 mm 0.00 in0.0 mm 0.00 in0.0 mm
08:44 PM 37.2°F2.9°C 27.0°F-2.8°C 66% 2.1 mph ENE3.4 kmh ENE 7.0 mph11.3 kmh 30.37 in1028.4 mb 0.00 in0.0 mm 0.00 in0.0 mm 0.00 in0.0 mm
08:49 PM 36.9°F2.7°C 27.0°F-2.8°C 67% 2.8 mph ENE4.5 kmh ENE 7.0 mph11.3 kmh 30.37 in1028.4 mb 0.00 in0.0 mm 0.00 in0.0 mm 0.00 in0.0 mm
08:54 PM 36.8°F2.7°C 27.3°F-2.6°C 68% 2.2 mph ENE3.5 kmh ENE 9.0 mph14.5 kmh 30.37 in1028.4 mb 0.00 in0.0 mm 0.00 in0.0 mm 0.00 in0.0 mm
08:59 PM 36.8°F2.7°C 27.3°F-2.6°C 68% 2.8 mph E4.5 kmh E 9.0 mph14.5 kmh 30.37 in1028.4 mb 0.00 in0.0 mm 0.00 in0.0 mm 0.00 in0.0 mm
09:04 PM 36.7°F2.6°C 27.2°F-2.7°C 68% 2.3 mph ENE3.7 kmh ENE 9.0 mph14.5 kmh 30.37 in1028.4 mb 0.00 in0.0 mm 0.00 in0.0 mm 0.00 in0.0 mm
09:09 PM 36.6°F2.6°C 27.0°F-2.8°C 68% 2.7 mph E4.3 kmh E 9.0 mph14.5 kmh 30.36 in1028.1 mb 0.00 in0.0 mm 0.00 in0.0 mm 0.00 in0.0 mm
09:14 PM 36.5°F2.5°C 27.0°F-2.8°C 68% 3.0 mph E4.8 kmh E 7.0 mph11.3 kmh 30.36 in1028.1 mb 0.00 in0.0 mm 0.00 in0.0 mm 0.00 in0.0 mm
09:19 PM 36.5°F2.5°C 27.0°F-2.8°C 68% 3.1 mph E5.0 kmh E 8.0 mph12.9 kmh 30.36 in1028.1 mb 0.00 in0.0 mm 0.00 in0.0 mm 0.00 in0.0 mm
09:24 PM 36.5°F2.5°C 26.9°F-2.8°C 68% 2.9 mph E4.7 kmh E 8.0 mph12.9 kmh 30.36 in1028.1 mb 0.00 in0.0 mm 0.00 in0.0 mm 0.00 in0.0 mm
09:29 PM 36.6°F2.6°C 26.8°F-2.9°C 67% 3.8 mph E6.1 kmh E 8.0 mph12.9 kmh 30.36 in1028.1 mb 0.00 in0.0 mm 0.00 in0.0 mm 0.00 in0.0 mm
09:34 PM 36.5°F2.5°C 26.7°F-2.9°C 67% 2.8 mph E4.5 kmh E 8.0 mph12.9 kmh 30.36 in1028.1 mb 0.00 in0.0 mm 0.00 in0.0 mm 0.00 in0.0 mm
09:39 PM 36.5°F2.5°C 27.0°F-2.8°C 68% 3.4 mph E5.5 kmh E 8.0 mph12.9 kmh 30.36 in1028.1 mb 0.00 in0.0 mm 0.00 in0.0 mm 0.00 in0.0 mm
09:44 PM 36.5°F2.5°C 27.0°F-2.8°C 68% 2.6 mph E4.2 kmh E 8.0 mph12.9 kmh 30.36 in1028.1 mb 0.00 in0.0 mm 0.00 in0.0 mm 0.00 in0.0 mm
09:49 PM 36.6°F2.6°C 27.0°F-2.8°C 68% 4.8 mph E7.7 kmh E 10.0 mph16.1 kmh 30.35 in1027.8 mb 0.00 in0.0 mm 0.00 in0.0 mm 0.00 in0.0 mm
09:54 PM 36.7°F2.6°C 27.2°F-2.7°C 68% 3.5 mph E5.6 kmh E 10.0 mph16.1 kmh 30.35 in1027.8 mb 0.00 in0.0 mm 0.00 in0.0 mm 0.00 in0.0 mm
09:59 PM 36.8°F2.7°C 27.3°F-2.6°C 68% 3.6 mph ENE5.8 kmh ENE 10.0 mph16.1 kmh 30.35 in1027.8 mb 0.00 in0.0 mm 0.00 in0.0 mm 0.00 in0.0 mm
10:03 PM 36.9°F2.7°C 27.0°F-2.8°C 67% 3.8 mph E6.1 kmh E 10.0 mph16.1 kmh 30.36 in1028.1 mb 0.00 in0.0 mm 0.00 in0.0 mm 0.00 in0.0 mm
10:08 PM 37.0°F2.8°C 27.1°F-2.7°C 67% 2.9 mph E4.7 kmh E 8.0 mph12.9 kmh 30.36 in1028.1 mb 0.00 in0.0 mm 0.00 in0.0 mm 0.00 in0.0 mm
10:13 PM 37.0°F2.8°C 27.1°F-2.7°C 67% 2.2 mph E3.5 kmh E 8.0 mph12.9 kmh 30.36 in1028.1 mb 0.00 in0.0 mm 0.00 in0.0 mm 0.00 in0.0 mm
10:18 PM 37.0°F2.8°C 26.7°F-2.9°C 66% 2.9 mph E4.7 kmh E 8.0 mph12.9 kmh 30.36 in1028.1 mb 0.00 in0.0 mm 0.00 in0.0 mm 0.00 in0.0 mm
10:23 PM 37.0°F2.8°C 26.8°F-2.9°C 66% 3.8 mph E6.1 kmh E 8.0 mph12.9 kmh 30.36 in1028.1 mb 0.00 in0.0 mm 0.00 in0.0 mm 0.00 in0.0 mm
10:28 PM 36.9°F2.7°C 26.7°F-2.9°C 66% 1.9 mph ENE3.1 kmh ENE 7.0 mph11.3 kmh 30.37 in1028.4 mb 0.00 in0.0 mm 0.00 in0.0 mm 0.00 in0.0 mm
10:33 PM 36.9°F2.7°C 26.7°F-2.9°C 66% 2.6 mph E4.2 kmh E 9.0 mph14.5 kmh 30.37 in1028.4 mb 0.00 in0.0 mm 0.00 in0.0 mm 0.00 in0.0 mm
10:38 PM 36.8°F2.7°C 26.6°F-3.0°C 66% 3.3 mph E5.3 kmh E 9.0 mph14.5 kmh 30.37 in1028.4 mb 0.00 in0.0 mm 0.00 in0.0 mm 0.00 in0.0 mm
10:43 PM 36.7°F2.6°C 26.5°F-3.1°C 66% 1.9 mph E3.1 kmh E 9.0 mph14.5 kmh 30.37 in1028.4 mb 0.00 in0.0 mm 0.00 in0.0 mm 0.00 in0.0 mm
10:48 PM 36.7°F2.6°C 26.5°F-3.1°C 66% 2.7 mph E4.3 kmh E 9.0 mph14.5 kmh 30.37 in1028.4 mb 0.00 in0.0 mm 0.00 in0.0 mm 0.00 in0.0 mm
10:53 PM 36.6°F2.6°C 26.0°F-3.3°C 65% 2.7 mph E4.3 kmh E 7.0 mph11.3 kmh 30.37 in1028.4 mb 0.00 in0.0 mm 0.00 in0.0 mm 0.00 in0.0 mm
10:58 PM 36.6°F2.6°C 26.0°F-3.3°C 65% 2.9 mph E4.7 kmh E 7.0 mph11.3 kmh 30.37 in1028.4 mb 0.00 in0.0 mm 0.00 in0.0 mm 0.00 in0.0 mm
11:03 PM 36.5°F2.5°C 25.9°F-3.4°C 65% 2.9 mph ENE4.7 kmh ENE 9.0 mph14.5 kmh 30.37 in1028.4 mb 0.00 in0.0 mm 0.00 in0.0 mm 0.00 in0.0 mm
11:08 PM 36.4°F2.4°C 25.8°F-3.4°C 65% 1.9 mph NE3.1 kmh NE 9.0 mph14.5 kmh 30.37 in1028.4 mb 0.00 in0.0 mm 0.00 in0.0 mm 0.00 in0.0 mm
11:13 PM 36.3°F2.4°C 25.7°F-3.5°C 65% 3.7 mph ENE6.0 kmh ENE 9.0 mph14.5 kmh 30.36 in1028.1 mb 0.00 in0.0 mm 0.00 in0.0 mm 0.00 in0.0 mm
11:18 PM 36.1°F2.3°C 25.9°F-3.4°C 66% 2.6 mph NE4.2 kmh NE 9.0 mph14.5 kmh 30.36 in1028.1 mb 0.00 in0.0 mm 0.00 in0.0 mm 0.00 in0.0 mm
11:23 PM 35.9°F2.2°C 26.1°F-3.3°C 67% 2.3 mph NE3.7 kmh NE 8.0 mph12.9 kmh 30.36 in1028.1 mb 0.00 in0.0 mm 0.00 in0.0 mm 0.00 in0.0 mm
11:28 PM 35.7°F2.1°C 25.9°F-3.4°C 67% 1.9 mph ENE3.1 kmh ENE 8.0 mph12.9 kmh 30.36 in1028.1 mb 0.00 in0.0 mm 0.00 in0.0 mm 0.00 in0.0 mm
11:33 PM 35.5°F1.9°C 26.1°F-3.3°C 68% 2.1 mph ENE3.4 kmh ENE 8.0 mph12.9 kmh 30.36 in1028.1 mb 0.00 in0.0 mm 0.00 in0.0 mm 0.00 in0.0 mm
11:38 PM 35.4°F1.9°C 26.0°F-3.3°C 68% 2.3 mph ENE3.7 kmh ENE 8.0 mph12.9 kmh 30.36 in1028.1 mb 0.00 in0.0 mm 0.00 in0.0 mm 0.00 in0.0 mm
11:43 PM 35.3°F1.8°C 25.9°F-3.4°C 68% 3.7 mph E6.0 kmh E 6.0 mph9.7 kmh 30.35 in1027.8 mb 0.00 in0.0 mm 0.00 in0.0 mm 0.00 in0.0 mm
11:48 PM 35.2°F1.8°C 25.8°F-3.4°C 68% 3.2 mph E5.1 kmh E 8.0 mph12.9 kmh 30.35 in1027.8 mb 0.00 in0.0 mm 0.00 in0.0 mm 0.00 in0.0 mm
11:53 PM 35.2°F1.8°C 25.8°F-3.4°C 68% 3.4 mph ENE5.5 kmh ENE 8.0 mph12.9 kmh 30.36 in1028.1 mb 0.00 in0.0 mm 0.00 in0.0 mm 0.00 in0.0 mm
11:58 PM 35.3°F1.8°C 25.5°F-3.6°C 67% 5.3 mph ENE8.5 kmh ENE 8.0 mph12.9 kmh 30.35 in1027.8 mb 0.00 in0.0 mm 0.00 in0.0 mm 0.00 in0.0 mm